Terminal Aerodrome Forecast
Issued by NWS

Home | Current Version | Previous Version | Text Only | Print | Product List | Glossary On
Versions: 1 2 3 4 5 6 7 8 9 10 11 12 13 14
906
FTUS46 KPDT 300523
TAFRDM
TAF
KRDM 300523Z 3006/0106 VRB05KT P6SM SCT050
     FM301700 34006KT P6SM SCT060
     FM302100 34012G18KT P6SM SCT070
     FM010300 01006KT P6SM FEW070=

USA.gov is the U.S. government's official web portal to all federal, state and local government web resources and services.